CST,Max TemperatureF,Mean TemperatureF,Min TemperatureF,Max Dew PointF,MeanDew PointF,Min DewpointF,Max Humidity, Mean Humidity, Min Humidity, Max Sea Level PressureIn, Mean Sea Level PressureIn, Min Sea Level PressureIn, Max VisibilityMiles, Mean VisibilityMiles, Min VisibilityMiles, Max Wind SpeedMPH, Mean Wind SpeedMPH, Max Gust SpeedMPH,PrecipitationIn, CloudCover, Events, WindDirDegrees
2011-11-1,60,48,35,45,38,34,93,73,48,30.06,29.98,29.89,10,9,7,14,5,20,0.00,2,,162
2011-11-2,50,44,37,43,40,36,100,88,66,30.16,30.07,29.95,10,10,4,16,5,21,0.31,8,Rain,353
2011-11-3,48,37,26,36,30,25,100,77,43,30.25,30.20,30.14,10,10,10,12,5,,0.00,0,,4
2011-11-4,51,35,19,30,25,18,100,74,38,30.33,30.28,30.22,10,10,7,9,1,,0.00,0,,154
2011-11-5,53,40,28,39,34,27,100,71,51,30.21,30.09,29.95,10,9,3,15,6,23,0.00,0,,150
2011-11-6,57,50,42,46,40,34,82,72,51,29.95,29.85,29.77,10,10,7,23,10,30,0.00,3,,175
2011-11-7,55,44,33,28,24,14,81,52,20,30.19,30.11,30.03,10,10,10,18,7,25,0.00,0,,224
2011-11-8,41,38,35,36,32,27,87,78,61,30.20,30.14,30.09,10,10,7,10,3,9,0.02,8,Rain,40
2011-11-9,39,36,33,34,32,30,93,91,81,30.05,29.85,29.71,10,5,0,18,10,25,0.44,7,Rain-Snow,331
2011-11-10,37,34,30,30,28,25,87,78,65,29.95,29.88,29.82,10,9,2,10,7,16,0.15,7,Snow,270
2011-11-11,39,32,24,28,25,21,93,75,56,29.94,29.80,29.65,10,10,5,13,5,18,0.05,3,Snow,196
2011-11-12,50,36,21,37,29,19,100,77,47,29.65,29.60,29.45,10,8,0,8,2,,0.00,0,Fog,149
2011-11-13,53,47,41,46,39,36,87,77,62,29.36,29.28,29.22,10,10,10,13,7,,0.00,3,,202
2011-11-14,48,39,30,39,34,28,93,77,57,29.59,29.51,29.46,10,10,5,17,5,21,0.03,2,Rain,210
2011-11-15,53,40,28,39,30,25,93,63,44,29.75,29.65,29.58,10,10,3,21,5,30,0.07,2,Rain,224
2011-11-16,35,32,28,19,17,12,69,55,38,30.03,29.94,29.82,10,10,10,18,11,32,0.00,4,Snow,261
2011-11-17,30,24,19,16,13,10,74,59,47,30.09,30.06,30.02,10,10,10,15,9,24,0.00,3,Snow,252
2011-11-18,46,35,24,27,22,12,86,60,43,30.04,29.80,29.70,10,10,10,20,7,28,0.00,2,,180
2011-11-19,39,32,24,34,29,21,100,84,65,29.78,29.73,29.67,10,8,2,7,2,,0.05,5,Rain,34
2011-11-20,33,30,26,28,23,19,87,76,64,30.34,30.23,29.96,10,10,10,14,6,,0.00,8,,351
2011-11-21,37,32,26,27,24,21,93,78,65,30.36,30.30,30.25,10,10,10,8,3,,0.00,7,,142
2011-11-22,44,34,23,32,28,21,100,84,57,30.27,30.12,29.98,10,8,4,9,4,,0.00,4,,50
2011-11-23,39,30,21,36,31,21,100,89,81,30.15,30.11,30.06,10,5,2,13,3,9,0.00,7,,236
2011-11-24,51,44,37,41,39,36,93,84,62,30.08,29.98,29.85,10,5,2,17,9,21,0.00,4,,198
2011-11-25,51,46,41,43,41,37,87,80,71,29.82,29.78,29.75,10,10,7,15,7,20,0.00,4,,190
2011-11-26,50,44,39,48,45,36,100,94,81,29.84,29.75,29.68,10,5,2,16,6,22,0.12,8,Rain,207
2011-11-27,37,34,30,36,26,21,93,75,65,30.15,30.00,29.85,10,10,10,18,10,30,0.01,8,,325
2011-11-28,33,30,26,25,23,21,93,76,65,30.16,30.10,30.04,10,10,10,8,2,,0.00,5,,221
2011-11-29,37,32,26,27,20,16,86,64,41,30.17,30.12,30.07,10,10,10,17,9,23,0.00,0,,351
2011-11-30,42,27,12,19,14,10,93,61,27,30.02,29.98,29.93,10,10,10,8,3,,0.00,1,,223